sensor_id;sensor_type;location;lat;lon;timestamp;pressure;altitude;pressure_sealevel;temperature;humidity
69245;BME280;56357;52.304;4.870;2023-03-14T00:00:10;98977.22;;;19.21;50.26
69245;BME280;56357;52.304;4.870;2023-03-14T00:02:38;98977.72;;;19.23;50.24
69245;BME280;56357;52.304;4.870;2023-03-14T00:05:05;98985.63;;;19.21;50.37
69245;BME280;56357;52.304;4.870;2023-03-14T00:07:36;98987.31;;;19.13;50.01
69245;BME280;56357;52.304;4.870;2023-03-14T00:10:06;98991.94;;;19.18;50.35
69245;BME280;56357;52.304;4.870;2023-03-14T00:12:33;98990.59;;;19.15;50.11
69245;BME280;56357;52.304;4.870;2023-03-14T00:15:00;98980.22;;;19.16;50.44
69245;BME280;56357;52.304;4.870;2023-03-14T00:17:29;98993.09;;;19.17;50.05
69245;BME280;56357;52.304;4.870;2023-03-14T00:19:56;99003.00;;;19.14;50.38
69245;BME280;56357;52.304;4.870;2023-03-14T00:22:22;98994.25;;;19.16;50.20
69245;BME280;56357;52.304;4.870;2023-03-14T00:24:48;98993.75;;;19.14;49.96
69245;BME280;56357;52.304;4.870;2023-03-14T00:27:15;98987.31;;;19.13;50.33
69245;BME280;56357;52.304;4.870;2023-03-14T00:29:42;98996.06;;;19.12;50.25
69245;BME280;56357;52.304;4.870;2023-03-14T00:32:10;98978.41;;;19.11;50.16
69245;BME280;56357;52.304;4.870;2023-03-14T00:34:36;98983.22;;;19.11;50.26
69245;BME280;56357;52.304;4.870;2023-03-14T00:37:02;98971.00;;;19.07;50.20
69245;BME280;56357;52.304;4.870;2023-03-14T00:39:29;98964.22;;;19.08;50.27
69245;BME280;56357;52.304;4.870;2023-03-14T00:41:55;98965.38;;;19.07;50.13
69245;BME280;56357;52.304;4.870;2023-03-14T00:44:22;98969.03;;;19.07;50.37
69245;BME280;56357;52.304;4.870;2023-03-14T00:46:49;98962.09;;;19.05;50.33
69245;BME280;56357;52.304;4.870;2023-03-14T00:49:15;98960.91;;;19.06;50.34
69245;BME280;56357;52.304;4.870;2023-03-14T00:51:42;98973.94;;;19.02;50.16
69245;BME280;56357;52.304;4.870;2023-03-14T00:54:08;98972.81;;;19.03;50.13
69245;BME280;56357;52.304;4.870;2023-03-14T00:56:34;98972.47;;;19.04;49.94
69245;BME280;56357;52.304;4.870;2023-03-14T00:59:01;98972.31;;;19.01;49.97
69245;BME280;56357;52.304;4.870;2023-03-14T01:01:27;98966.22;;;18.99;49.84
69245;BME280;56357;52.304;4.870;2023-03-14T01:03:55;98977.09;;;19.00;50.26
69245;BME280;56357;52.304;4.870;2023-03-14T01:06:26;98973.00;;;18.98;50.28
69245;BME280;56357;52.304;4.870;2023-03-14T01:08:54;98981.41;;;18.98;49.99
69245;BME280;56357;52.304;4.870;2023-03-14T01:11:24;98978.91;;;18.96;50.25
69245;BME280;56357;52.304;4.870;2023-03-14T01:13:52;98985.03;;;18.98;50.06
69245;BME280;56357;52.304;4.870;2023-03-14T01:16:19;98980.09;;;18.95;50.17
69245;BME280;56357;52.304;4.870;2023-03-14T01:18:47;98981.56;;;18.93;50.08
69245;BME280;56357;52.304;4.870;2023-03-14T01:21:18;98986.03;;;18.94;50.32
69245;BME280;56357;52.304;4.870;2023-03-14T01:23:46;98969.84;;;18.91;50.10
69245;BME280;56357;52.304;4.870;2023-03-14T01:26:15;98982.25;;;18.90;50.39
69245;BME280;56357;52.304;4.870;2023-03-14T01:28:42;98974.63;;;18.90;50.18
69245;BME280;56357;52.304;4.870;2023-03-14T01:31:09;98978.25;;;18.91;50.11
69245;BME280;56357;52.304;4.870;2023-03-14T01:33:36;98976.47;;;18.86;50.29
69245;BME280;56357;52.304;4.870;2023-03-14T01:36:04;98972.50;;;18.87;50.19
69245;BME280;56357;52.304;4.870;2023-03-14T01:38:32;98980.91;;;18.87;49.99
69245;BME280;56357;52.304;4.870;2023-03-14T01:40:59;98983.72;;;18.87;50.15
69245;BME280;56357;52.304;4.870;2023-03-14T01:43:27;98984.06;;;18.86;50.03
69245;BME280;56357;52.304;4.870;2023-03-14T01:51:18;98967.88;;;18.83;50.11
69245;BME280;56357;52.304;4.870;2023-03-14T01:53:49;98963.44;;;18.82;49.90
69245;BME280;56357;52.304;4.870;2023-03-14T01:56:18;98962.59;;;18.81;49.86
69245;BME280;56357;52.304;4.870;2023-03-14T01:58:47;98960.13;;;18.80;50.20
69245;BME280;56357;52.304;4.870;2023-03-14T02:01:18;98956.16;;;18.81;50.15
69245;BME280;56357;52.304;4.870;2023-03-14T02:03:54;98954.69;;;18.75;50.06
69245;BME280;56357;52.304;4.870;2023-03-14T02:09:10;98945.13;;;18.76;50.31
69245;BME280;56357;52.304;4.870;2023-03-14T02:11:37;98949.41;;;18.73;50.08
69245;BME280;56357;52.304;4.870;2023-03-14T02:14:04;98945.78;;;18.73;50.15
69245;BME280;56357;52.304;4.870;2023-03-14T02:16:31;98951.72;;;18.71;50.30
69245;BME280;56357;52.304;4.870;2023-03-14T02:18:58;98944.63;;;18.74;50.23
69245;BME280;56357;52.304;4.870;2023-03-14T02:27:20;98930.09;;;18.72;50.03
69245;BME280;56357;52.304;4.870;2023-03-14T02:29:51;98938.03;;;18.70;50.16
69245;BME280;56357;52.304;4.870;2023-03-14T02:32:20;98940.81;;;18.70;50.16
69245;BME280;56357;52.304;4.870;2023-03-14T02:34:52;98931.59;;;18.69;50.10
69245;BME280;56357;52.304;4.870;2023-03-14T02:37:22;98932.41;;;18.70;50.30
69245;BME280;56357;52.304;4.870;2023-03-14T02:39:49;98936.69;;;18.67;50.29
69245;BME280;56357;52.304;4.870;2023-03-14T02:42:16;98923.03;;;18.66;49.96
69245;BME280;56357;52.304;4.870;2023-03-14T02:44:53;98924.19;;;18.65;50.10
69245;BME280;56357;52.304;4.870;2023-03-14T02:47:23;98914.59;;;18.66;50.20
69245;BME280;56357;52.304;4.870;2023-03-14T02:49:59;98923.84;;;18.66;50.04
69245;BME280;56357;52.304;4.870;2023-03-14T02:52:27;98915.28;;;18.63;50.08
69245;BME280;56357;52.304;4.870;2023-03-14T02:54:53;98914.44;;;18.62;50.26
69245;BME280;56357;52.304;4.870;2023-03-14T02:57:20;98914.44;;;18.62;50.17
69245;BME280;56357;52.304;4.870;2023-03-14T02:59:46;98914.44;;;18.62;50.36
69245;BME280;56357;52.304;4.870;2023-03-14T03:02:13;98922.03;;;18.62;50.30
69245;BME280;56357;52.304;4.870;2023-03-14T03:04:39;98905.69;;;18.64;50.25
69245;BME280;56357;52.304;4.870;2023-03-14T03:07:07;98917.41;;;18.66;50.34
69245;BME280;56357;52.304;4.870;2023-03-14T03:09:33;98914.25;;;18.67;50.27
69245;BME280;56357;52.304;4.870;2023-03-14T03:12:00;98896.31;;;18.68;50.27
69245;BME280;56357;52.304;4.870;2023-03-14T03:14:26;98901.06;;;18.68;50.23
69245;BME280;56357;52.304;4.870;2023-03-14T03:16:53;98904.22;;;18.66;50.41
69245;BME280;56357;52.304;4.870;2023-03-14T03:19:19;98905.84;;;18.67;50.48
69245;BME280;56357;52.304;4.870;2023-03-14T03:21:46;98897.78;;;18.66;50.60
69245;BME280;56357;52.304;4.870;2023-03-14T03:24:13;98904.38;;;18.70;50.26
69245;BME280;56357;52.304;4.870;2023-03-14T03:26:40;98902.59;;;18.65;50.58
69245;BME280;56357;52.304;4.870;2023-03-14T03:29:06;98891.03;;;18.67;50.87
69245;BME280;56357;52.304;4.870;2023-03-14T03:31:32;98891.53;;;18.69;50.43
69245;BME280;56357;52.304;4.870;2023-03-14T03:33:59;98888.22;;;18.67;50.61
69245;BME280;56357;52.304;4.870;2023-03-14T03:36:25;98883.59;;;18.71;50.39
69245;BME280;56357;52.304;4.870;2023-03-14T03:38:52;98894.81;;;18.71;50.25
69245;BME280;56357;52.304;4.870;2023-03-14T03:41:18;98891.69;;;18.72;50.50
69245;BME280;56357;52.304;4.870;2023-03-14T03:43:45;98886.91;;;18.73;50.36
69245;BME280;56357;52.304;4.870;2023-03-14T03:46:11;98896.63;;;18.75;50.13
69245;BME280;56357;52.304;4.870;2023-03-14T03:48:37;98880.63;;;18.76;50.06
69245;BME280;56357;52.304;4.870;2023-03-14T03:51:04;98885.25;;;18.72;50.53
69245;BME280;56357;52.304;4.870;2023-03-14T03:53:31;98877.31;;;18.74;50.47
69245;BME280;56357;52.304;4.870;2023-03-14T03:55:57;98894.16;;;18.74;50.39
69245;BME280;56357;52.304;4.870;2023-03-14T03:58:24;98890.03;;;18.71;50.75
69245;BME280;56357;52.304;4.870;2023-03-14T04:00:50;98898.13;;;18.73;50.38
69245;BME280;56357;52.304;4.870;2023-03-14T04:03:17;98894.97;;;18.74;50.81
69245;BME280;56357;52.304;4.870;2023-03-14T04:05:43;98899.94;;;18.69;50.66
69245;BME280;56357;52.304;4.870;2023-03-14T04:08:09;98892.81;;;18.71;50.97
69245;BME280;56357;52.304;4.870;2023-03-14T04:10:36;98890.84;;;18.72;50.58
69245;BME280;56357;52.304;4.870;2023-03-14T04:13:03;98897.13;;;18.69;50.68
69245;BME280;56357;52.304;4.870;2023-03-14T04:15:29;98913.13;;;18.77;50.81
69245;BME280;56357;52.304;4.870;2023-03-14T04:17:58;98918.41;;;18.78;50.73
69245;BME280;56357;52.304;4.870;2023-03-14T04:20:25;98907.69;;;18.72;50.82
69245;BME280;56357;52.304;4.870;2023-03-14T04:22:51;98904.22;;;18.75;50.69
69245;BME280;56357;52.304;4.870;2023-03-14T04:25:18;98910.63;;;18.75;50.61
69245;BME280;56357;52.304;4.870;2023-03-14T04:27:45;98919.38;;;18.74;51.04
69245;BME280;56357;52.304;4.870;2023-03-14T04:30:11;98915.59;;;18.70;50.92
69245;BME280;56357;52.304;4.870;2023-03-14T04:32:39;98916.75;;;18.77;51.09
69245;BME280;56357;52.304;4.870;2023-03-14T04:35:06;98916.09;;;18.80;50.85
69245;BME280;56357;52.304;4.870;2023-03-14T04:37:32;98915.25;;;18.80;50.83
69245;BME280;56357;52.304;4.870;2023-03-14T04:39:59;98915.59;;;18.78;50.83
69245;BME280;56357;52.304;4.870;2023-03-14T04:42:25;98906.50;;;18.81;51.01
69245;BME280;56357;52.304;4.870;2023-03-14T04:44:51;98901.56;;;18.78;50.64
69245;BME280;56357;52.304;4.870;2023-03-14T04:47:18;98900.41;;;18.79;50.98
69245;BME280;56357;52.304;4.870;2023-03-14T04:49:44;98890.34;;;18.78;50.81
69245;BME280;56357;52.304;4.870;2023-03-14T04:52:11;98896.31;;;18.77;51.05
69245;BME280;56357;52.304;4.870;2023-03-14T04:54:37;98886.88;;;18.81;50.82
69245;BME280;56357;52.304;4.870;2023-03-14T04:57:04;98885.75;;;18.65;51.59
69245;BME280;56357;52.304;4.870;2023-03-14T04:59:30;98899.25;;;18.72;51.28
69245;BME280;56357;52.304;4.870;2023-03-14T05:01:56;98892.50;;;18.73;51.27
69245;BME280;56357;52.304;4.870;2023-03-14T05:04:23;98883.72;;;18.83;51.16
69245;BME280;56357;52.304;4.870;2023-03-14T05:06:49;98884.25;;;18.68;51.35
69245;BME280;56357;52.304;4.870;2023-03-14T05:09:17;98877.31;;;18.82;51.19
69245;BME280;56357;52.304;4.870;2023-03-14T05:11:43;98876.69;;;18.77;51.34
69245;BME280;56357;52.304;4.870;2023-03-14T05:14:10;98880.94;;;18.83;50.92
69245;BME280;56357;52.304;4.870;2023-03-14T05:16:36;98892.63;;;18.85;50.90
69245;BME280;56357;52.304;4.870;2023-03-14T05:19:02;98886.38;;;18.79;51.29
69245;BME280;56357;52.304;4.870;2023-03-14T05:21:29;98882.25;;;18.85;51.11
69245;BME280;56357;52.304;4.870;2023-03-14T05:23:55;98886.88;;;18.81;51.26
69245;BME280;56357;52.304;4.870;2023-03-14T05:26:22;98879.94;;;18.79;51.27
69245;BME280;56357;52.304;4.870;2023-03-14T05:28:49;98885.88;;;18.86;51.12
69245;BME280;56357;52.304;4.870;2023-03-14T05:31:15;98898.91;;;18.90;51.02
69245;BME280;56357;52.304;4.870;2023-03-14T05:33:41;98901.19;;;18.88;51.27
69245;BME280;56357;52.304;4.870;2023-03-14T05:36:08;98920.56;;;18.73;51.22
69245;BME280;56357;52.304;4.870;2023-03-14T05:38:35;98911.63;;;18.88;51.35
69245;BME280;56357;52.304;4.870;2023-03-14T05:41:01;98908.47;;;18.81;51.31
69245;BME280;56357;52.304;4.870;2023-03-14T05:43:27;98924.00;;;18.78;51.46
69245;BME280;56357;52.304;4.870;2023-03-14T05:45:54;98941.50;;;18.84;51.28
69245;BME280;56357;52.304;4.870;2023-03-14T05:48:20;98959.31;;;18.88;51.36
69245;BME280;56357;52.304;4.870;2023-03-14T05:50:47;98958.00;;;18.77;51.58
69245;BME280;56357;52.304;4.870;2023-03-14T05:53:14;98971.03;;;18.73;51.82
69245;BME280;56357;52.304;4.870;2023-03-14T05:55:40;98976.28;;;18.91;51.25
69245;BME280;56357;52.304;4.870;2023-03-14T05:58:07;98990.00;;;18.84;51.35
69245;BME280;56357;52.304;4.870;2023-03-14T06:00:33;98989.31;;;18.87;51.57
69245;BME280;56357;52.304;4.870;2023-03-14T06:02:59;99001.53;;;18.83;51.45
69245;BME280;56357;52.304;4.870;2023-03-14T06:05:26;98999.38;;;18.88;51.31
69245;BME280;56357;52.304;4.870;2023-03-14T06:07:52;99006.00;;;18.84;51.40
69245;BME280;56357;52.304;4.870;2023-03-14T06:10:19;99012.59;;;18.88;51.44
69245;BME280;56357;52.304;4.870;2023-03-14T06:12:45;99027.13;;;18.90;51.78
69245;BME280;56357;52.304;4.870;2023-03-14T06:15:12;99023.66;;;18.84;51.87
69245;BME280;56357;52.304;4.870;2023-03-14T06:17:38;99022.97;;;18.79;52.04
69245;BME280;56357;52.304;4.870;2023-03-14T06:20:05;99039.63;;;18.50;52.96
69245;BME280;56357;52.304;4.870;2023-03-14T06:22:31;99033.69;;;18.68;52.59
69245;BME280;56357;52.304;4.870;2023-03-14T06:24:58;99047.06;;;18.71;52.60
69245;BME280;56357;52.304;4.870;2023-03-14T06:27:24;99058.25;;;18.71;53.10
69245;BME280;56357;52.304;4.870;2023-03-14T06:29:51;99059.78;;;18.86;52.69
69245;BME280;56357;52.304;4.870;2023-03-14T06:32:17;99079.25;;;18.91;52.71
69245;BME280;56357;52.304;4.870;2023-03-14T06:34:44;99080.72;;;18.88;52.97
69245;BME280;56357;52.304;4.870;2023-03-14T06:37:10;99087.47;;;18.70;53.48
69245;BME280;56357;52.304;4.870;2023-03-14T06:39:37;99090.59;;;18.77;53.35
69245;BME280;56357;52.304;4.870;2023-03-14T06:42:04;99110.25;;;18.69;53.66
69245;BME280;56357;52.304;4.870;2023-03-14T06:44:30;99112.91;;;18.91;53.19
69245;BME280;56357;52.304;4.870;2023-03-14T06:46:57;99114.22;;;19.02;52.85
69245;BME280;56357;52.304;4.870;2023-03-14T06:49:23;99117.88;;;19.02;52.42
69245;BME280;56357;52.304;4.870;2023-03-14T06:51:49;99130.09;;;18.98;52.73
69245;BME280;56357;52.304;4.870;2023-03-14T06:54:16;99134.38;;;19.04;52.13
69245;BME280;56357;52.304;4.870;2023-03-14T06:56:42;99135.38;;;18.99;51.93
69245;BME280;56357;52.304;4.870;2023-03-14T06:59:09;99138.34;;;19.03;52.13
69245;BME280;56357;52.304;4.870;2023-03-14T07:01:35;99160.59;;;18.91;52.09
69245;BME280;56357;52.304;4.870;2023-03-14T07:04:02;99167.22;;;18.95;53.02
69245;BME280;56357;52.304;4.870;2023-03-14T07:06:29;99171.84;;;18.99;52.23
69245;BME280;56357;52.304;4.870;2023-03-14T07:08:56;99183.53;;;18.93;52.33
69245;BME280;56357;52.304;4.870;2023-03-14T07:11:22;99189.81;;;18.90;52.16
69245;BME280;56357;52.304;4.870;2023-03-14T07:13:49;99200.53;;;18.88;52.22
69245;BME280;56357;52.304;4.870;2023-03-14T07:16:16;99216.38;;;18.92;52.10
69245;BME280;56357;52.304;4.870;2023-03-14T07:18:42;99229.88;;;18.82;52.38
69245;BME280;56357;52.304;4.870;2023-03-14T07:21:09;99250.00;;;18.84;52.10
69245;BME280;56357;52.304;4.870;2023-03-14T07:23:35;99258.16;;;18.94;51.68
69245;BME280;56357;52.304;4.870;2023-03-14T07:26:02;99272.69;;;18.96;51.10
69245;BME280;56357;52.304;4.870;2023-03-14T07:28:28;99296.09;;;19.00;51.43
69245;BME280;56357;52.304;4.870;2023-03-14T07:30:55;99308.31;;;19.04;51.29
69245;BME280;56357;52.304;4.870;2023-03-14T07:33:21;99332.09;;;18.98;51.39
69245;BME280;56357;52.304;4.870;2023-03-14T07:35:48;99341.97;;;18.95;51.59
69245;BME280;56357;52.304;4.870;2023-03-14T07:38:16;99360.63;;;19.00;51.74
69245;BME280;56357;52.304;4.870;2023-03-14T07:40:43;99370.88;;;18.96;51.91
69245;BME280;56357;52.304;4.870;2023-03-14T07:43:09;99384.84;;;18.87;52.30
69245;BME280;56357;52.304;4.870;2023-03-14T07:45:36;99403.00;;;18.90;52.28
69245;BME280;56357;52.304;4.870;2023-03-14T07:48:02;99399.22;;;18.94;51.96
69245;BME280;56357;52.304;4.870;2023-03-14T07:50:29;99405.47;;;18.91;51.97
69245;BME280;56357;52.304;4.870;2023-03-14T07:52:55;99429.56;;;18.92;52.11
69245;BME280;56357;52.304;4.870;2023-03-14T07:55:22;99432.69;;;18.91;52.10
69245;BME280;56357;52.304;4.870;2023-03-14T07:57:48;99439.47;;;18.90;52.18
69245;BME280;56357;52.304;4.870;2023-03-14T08:00:15;99450.31;;;18.83;52.33
69245;BME280;56357;52.304;4.870;2023-03-14T08:02:42;99459.13;;;18.90;52.49
69245;BME280;56357;52.304;4.870;2023-03-14T08:05:08;99471.28;;;18.85;52.43
69245;BME280;56357;52.304;4.870;2023-03-14T08:07:35;99477.16;;;18.97;52.79
69245;BME280;56357;52.304;4.870;2023-03-14T08:10:03;99489.50;;;18.96;53.11
69245;BME280;56357;52.304;4.870;2023-03-14T08:12:29;99512.13;;;19.00;53.44
69245;BME280;56357;52.304;4.870;2023-03-14T08:14:56;99526.25;;;18.86;53.30
69245;BME280;56357;52.304;4.870;2023-03-14T08:17:24;99526.31;;;18.95;53.13
69245;BME280;56357;52.304;4.870;2023-03-14T08:19:51;99540.16;;;18.91;53.55
69245;BME280;56357;52.304;4.870;2023-03-14T08:22:17;99545.09;;;18.94;52.94
69245;BME280;56357;52.304;4.870;2023-03-14T08:24:43;99542.91;;;18.69;54.24
69245;BME280;56357;52.304;4.870;2023-03-14T08:27:10;99557.03;;;18.78;53.74
69245;BME280;56357;52.304;4.870;2023-03-14T08:29:36;99567.88;;;18.93;53.74
69245;BME280;56357;52.304;4.870;2023-03-14T08:32:03;99576.38;;;19.01;53.28
69245;BME280;56357;52.304;4.870;2023-03-14T08:34:29;99582.59;;;18.76;54.18
69245;BME280;56357;52.304;4.870;2023-03-14T08:36:55;99593.91;;;18.71;53.94
69245;BME280;56357;52.304;4.870;2023-03-14T08:39:22;99606.03;;;18.94;53.46
69245;BME280;56357;52.304;4.870;2023-03-14T08:41:49;99620.84;;;18.94;53.54
69245;BME280;56357;52.304;4.870;2023-03-14T08:44:16;99630.63;;;18.97;53.26
69245;BME280;56357;52.304;4.870;2023-03-14T08:46:42;99646.59;;;18.74;53.57
69245;BME280;56357;52.304;4.870;2023-03-14T08:49:09;99649.88;;;18.90;53.41
69245;BME280;56357;52.304;4.870;2023-03-14T08:51:35;99658.25;;;19.03;52.27
69245;BME280;56357;52.304;4.870;2023-03-14T08:54:01;99669.50;;;19.03;52.31
69245;BME280;56357;52.304;4.870;2023-03-14T08:56:28;99667.63;;;18.99;51.90
69245;BME280;56357;52.304;4.870;2023-03-14T08:58:54;99686.53;;;19.07;52.03
69245;BME280;56357;52.304;4.870;2023-03-14T09:01:21;99692.75;;;19.04;52.27
69245;BME280;56357;52.304;4.870;2023-03-14T09:03:50;99705.53;;;19.10;51.83
69245;BME280;56357;52.304;4.870;2023-03-14T09:06:16;99714.81;;;18.97;50.58
69245;BME280;56357;52.304;4.870;2023-03-14T09:08:43;99731.13;;;18.81;49.25
69245;BME280;56357;52.304;4.870;2023-03-14T09:11:10;99734.44;;;18.83;49.31
69245;BME280;56357;52.304;4.870;2023-03-14T09:13:36;99734.66;;;18.87;49.18
69245;BME280;56357;52.304;4.870;2023-03-14T09:16:03;99743.91;;;18.87;49.52
69245;BME280;56357;52.304;4.870;2023-03-14T09:18:30;99750.44;;;18.83;49.75
69245;BME280;56357;52.304;4.870;2023-03-14T09:20:56;99771.84;;;18.79;49.72
69245;BME280;56357;52.304;4.870;2023-03-14T09:23:23;99769.03;;;18.79;49.80
69245;BME280;56357;52.304;4.870;2023-03-14T09:25:57;99777.06;;;18.85;50.02
69245;BME280;56357;52.304;4.870;2023-03-14T09:28:24;99797.53;;;18.86;49.78
69245;BME280;56357;52.304;4.870;2023-03-14T09:30:51;99807.00;;;18.90;49.89
69245;BME280;56357;52.304;4.870;2023-03-14T09:33:19;99813.19;;;18.87;49.82
69245;BME280;56357;52.304;4.870;2023-03-14T09:35:46;99836.69;;;18.91;49.99
69245;BME280;56357;52.304;4.870;2023-03-14T09:38:12;99847.50;;;18.84;50.00
69245;BME280;56357;52.304;4.870;2023-03-14T09:40:39;99870.53;;;18.81;50.68
69245;BME280;56357;52.304;4.870;2023-03-14T09:43:05;99890.00;;;18.91;50.30
69245;BME280;56357;52.304;4.870;2023-03-14T09:45:37;99878.19;;;18.94;50.02
69245;BME280;56357;52.304;4.870;2023-03-14T09:48:06;99888.88;;;18.92;49.88
69245;BME280;56357;52.304;4.870;2023-03-14T09:50:53;99898.63;;;18.94;50.04
69245;BME280;56357;52.304;4.870;2023-03-14T09:53:24;99900.81;;;18.97;49.88
69245;BME280;56357;52.304;4.870;2023-03-14T09:55:53;99894.69;;;18.95;50.06
69245;BME280;56357;52.304;4.870;2023-03-14T09:58:22;99911.22;;;18.97;50.02
69245;BME280;56357;52.304;4.870;2023-03-14T10:00:50;99911.53;;;18.95;50.01
69245;BME280;56357;52.304;4.870;2023-03-14T10:05:47;99922.13;;;18.98;50.27
69245;BME280;56357;52.304;4.870;2023-03-14T10:08:14;99946.03;;;18.96;50.11
69245;BME280;56357;52.304;4.870;2023-03-14T10:10:41;99953.31;;;18.97;49.84
69245;BME280;56357;52.304;4.870;2023-03-14T10:13:20;99969.81;;;18.98;49.55
69245;BME280;56357;52.304;4.870;2023-03-14T10:18:22;99967.84;;;18.99;49.78
69245;BME280;56357;52.304;4.870;2023-03-14T10:20:52;100001.31;;;18.95;49.99
69245;BME280;56357;52.304;4.870;2023-03-14T10:23:29;99998.41;;;19.00;50.15
69245;BME280;56357;52.304;4.870;2023-03-14T10:26:03;100011.00;;;19.03;50.05
69245;BME280;56357;52.304;4.870;2023-03-14T10:28:33;100016.84;;;19.06;49.41
69245;BME280;56357;52.304;4.870;2023-03-14T10:31:00;100019.22;;;18.99;49.70
69245;BME280;56357;52.304;4.870;2023-03-14T10:33:29;100037.84;;;18.90;49.87
69245;BME280;56357;52.304;4.870;2023-03-14T10:36:02;100037.06;;;18.90;49.98
69245;BME280;56357;52.304;4.870;2023-03-14T10:38:33;100048.69;;;18.97;50.27
69245;BME280;56357;52.304;4.870;2023-03-14T10:41:01;100056.22;;;19.01;50.47
69245;BME280;56357;52.304;4.870;2023-03-14T10:43:34;100064.22;;;19.08;50.10
69245;BME280;56357;52.304;4.870;2023-03-14T10:46:14;100079.94;;;19.09;49.86
69245;BME280;56357;52.304;4.870;2023-03-14T10:48:42;100091.50;;;19.21;49.44
69245;BME280;56357;52.304;4.870;2023-03-14T10:53:48;100102.66;;;19.26;49.43
69245;BME280;56357;52.304;4.870;2023-03-14T10:56:19;100120.88;;;19.29;49.25
69245;BME280;56357;52.304;4.870;2023-03-14T10:58:49;100138.50;;;19.34;49.34
69245;BME280;56357;52.304;4.870;2023-03-14T11:01:27;100156.84;;;19.27;48.40
69245;BME280;56357;52.304;4.870;2023-03-14T11:04:10;100165.50;;;19.30;49.41
69245;BME280;56357;52.304;4.870;2023-03-14T11:06:44;100153.09;;;19.31;49.49
69245;BME280;56357;52.304;4.870;2023-03-14T11:10:04;100165.97;;;19.37;48.90
69245;BME280;56357;52.304;4.870;2023-03-14T11:12:58;100178.16;;;19.28;49.35
69245;BME280;56357;52.304;4.870;2023-03-14T11:15:41;100194.56;;;19.39;48.86
69245;BME280;56357;52.304;4.870;2023-03-14T11:21:12;100211.72;;;19.38;48.75
69245;BME280;56357;52.304;4.870;2023-03-14T11:28:57;100228.25;;;19.39;48.74
69245;BME280;56357;52.304;4.870;2023-03-14T11:31:29;100241.47;;;19.39;48.43
69245;BME280;56357;52.304;4.870;2023-03-14T11:36:53;100253.97;;;19.46;48.72
69245;BME280;56357;52.304;4.870;2023-03-14T11:39:25;100262.13;;;19.48;48.72
69245;BME280;56357;52.304;4.870;2023-03-14T11:41:53;100282.59;;;19.48;48.67
69245;BME280;56357;52.304;4.870;2023-03-14T11:44:38;100286.03;;;19.45;47.94
69245;BME280;56357;52.304;4.870;2023-03-14T11:50:26;100307.44;;;19.41;48.24
69245;BME280;56357;52.304;4.870;2023-03-14T11:53:18;100318.03;;;19.44;48.23
69245;BME280;56357;52.304;4.870;2023-03-14T11:55:46;100321.47;;;19.41;47.99
69245;BME280;56357;52.304;4.870;2023-03-14T11:58:27;100326.53;;;19.39;47.69
69245;BME280;56357;52.304;4.870;2023-03-14T12:00:57;100318.56;;;19.46;47.88
69245;BME280;56357;52.304;4.870;2023-03-14T12:04:05;100334.22;;;19.52;47.81
69245;BME280;56357;52.304;4.870;2023-03-14T12:06:46;100334.00;;;19.49;47.84
69245;BME280;56357;52.304;4.870;2023-03-14T12:09:13;100348.56;;;19.51;47.63
69245;BME280;56357;52.304;4.870;2023-03-14T12:14:26;100356.06;;;19.37;47.72
69245;BME280;56357;52.304;4.870;2023-03-14T12:16:56;100363.66;;;19.36;47.48
69245;BME280;56357;52.304;4.870;2023-03-14T12:21:58;100362.97;;;19.44;48.25
69245;BME280;56357;52.304;4.870;2023-03-14T12:24:29;100374.81;;;19.41;47.63
69245;BME280;56357;52.304;4.870;2023-03-14T12:26:59;100375.66;;;19.42;47.86
69245;BME280;56357;52.304;4.870;2023-03-14T12:29:26;100385.53;;;19.39;47.64
69245;BME280;56357;52.304;4.870;2023-03-14T12:32:22;100391.13;;;19.39;47.48
69245;BME280;56357;52.304;4.870;2023-03-14T12:34:55;100396.22;;;19.37;47.68
69245;BME280;56357;52.304;4.870;2023-03-14T12:37:36;100407.22;;;19.34;47.38
69245;BME280;56357;52.304;4.870;2023-03-14T12:40:17;100402.69;;;19.38;46.99
69245;BME280;56357;52.304;4.870;2023-03-14T12:42:57;100411.03;;;19.43;47.48
69245;BME280;56357;52.304;4.870;2023-03-14T12:45:37;100424.91;;;19.34;47.71
69245;BME280;56357;52.304;4.870;2023-03-14T12:48:23;100429.34;;;19.40;47.91
69245;BME280;56357;52.304;4.870;2023-03-14T12:56:18;100448.84;;;19.27;47.53
69245;BME280;56357;52.304;4.870;2023-03-14T13:01:28;100462.06;;;19.21;47.87
69245;BME280;56357;52.304;4.870;2023-03-14T13:03:57;100459.94;;;19.13;47.47
69245;BME280;56357;52.304;4.870;2023-03-14T13:06:45;100471.69;;;19.15;47.06
69245;BME280;56357;52.304;4.870;2023-03-14T13:11:56;100499.16;;;19.18;46.91
69245;BME280;56357;52.304;4.870;2023-03-14T13:14:31;100488.78;;;19.18;47.03
69245;BME280;56357;52.304;4.870;2023-03-14T13:17:01;100489.34;;;19.15;47.30
69245;BME280;56357;52.304;4.870;2023-03-14T13:19:30;100505.47;;;19.05;47.19
69245;BME280;56357;52.304;4.870;2023-03-14T13:22:11;100500.09;;;19.08;47.99
69245;BME280;56357;52.304;4.870;2023-03-14T13:24:40;100516.34;;;19.11;47.88
69245;BME280;56357;52.304;4.870;2023-03-14T13:27:25;100525.13;;;19.05;47.09
69245;BME280;56357;52.304;4.870;2023-03-14T13:29:52;100533.56;;;19.05;47.30
69245;BME280;56357;52.304;4.870;2023-03-14T13:32:26;100530.69;;;19.10;47.45
69245;BME280;56357;52.304;4.870;2023-03-14T13:34:57;100549.00;;;19.02;47.79
69245;BME280;56357;52.304;4.870;2023-03-14T13:37:26;100557.41;;;19.02;47.61
69245;BME280;56357;52.304;4.870;2023-03-14T13:39:56;100559.59;;;19.10;47.17
69245;BME280;56357;52.304;4.870;2023-03-14T13:42:28;100564.59;;;19.13;47.47
69245;BME280;56357;52.304;4.870;2023-03-14T13:44:56;100573.94;;;19.09;48.00
69245;BME280;56357;52.304;4.870;2023-03-14T13:47:24;100568.31;;;19.09;47.54
69245;BME280;56357;52.304;4.870;2023-03-14T13:49:52;100582.91;;;19.11;47.86
69245;BME280;56357;52.304;4.870;2023-03-14T13:54:53;100593.59;;;19.09;47.56
69245;BME280;56357;52.304;4.870;2023-03-14T13:57:20;100600.94;;;19.00;47.36
69245;BME280;56357;52.304;4.870;2023-03-14T13:59:59;100602.31;;;19.02;47.58